createdAt,value
2018-12-08T00:00:03.678Z,797.61
2018-12-08T00:00:07.978Z,797.54
2018-12-08T00:00:12.268Z,797.55
2018-12-08T00:00:16.560Z,797.55
2018-12-08T00:00:20.857Z,797.5
2018-12-08T00:00:25.158Z,797.57
2018-12-08T00:00:29.454Z,797.52
2018-12-08T00:00:33.743Z,797.45
2018-12-08T00:00:38.048Z,797.45
2018-12-08T00:00:42.342Z,797.47
2018-12-08T00:00:46.633Z,797.48
2018-12-08T00:00:51.016Z,797.48
2018-12-08T00:00:55.305Z,797.46
2018-12-08T00:00:59.598Z,797.44
2018-12-08T00:01:04.048Z,797.44
2018-12-08T00:01:08.337Z,797.47
2018-12-08T00:01:12.635Z,797.45
2018-12-08T00:01:16.921Z,797.44
2018-12-08T00:01:21.116Z,797.42
2018-12-08T00:01:25.407Z,797.4
2018-12-08T00:01:29.698Z,797.4
2018-12-08T00:01:33.987Z,797.42
2018-12-08T00:01:38.287Z,797.37
2018-12-08T00:01:42.605Z,797.41
2018-12-08T00:01:46.897Z,797.42
2018-12-08T00:01:51.193Z,797.42
2018-12-08T00:01:55.489Z,797.41
2018-12-08T00:01:59.777Z,797.4
2018-12-08T00:02:04.174Z,797.37
2018-12-08T00:02:08.491Z,797.37
2018-12-08T00:02:12.784Z,797.3
2018-12-08T00:02:17.074Z,797.32
2018-12-08T00:02:21.266Z,797.32
2018-12-08T00:02:25.567Z,797.32
2018-12-08T00:02:29.854Z,797.33
2018-12-08T00:02:34.152Z,797.3
2018-12-08T00:02:38.445Z,797.33
2018-12-08T00:02:42.733Z,797.35
2018-12-08T00:02:46.924Z,797.34
2018-12-08T00:02:51.224Z,797.33
2018-12-08T00:02:55.517Z,797.31
2018-12-08T00:02:59.807Z,797.29
2018-12-08T00:03:04.196Z,797.31
2018-12-08T00:03:08.490Z,797.3
2018-12-08T00:03:12.791Z,797.29
2018-12-08T00:03:17.201Z,797.3
2018-12-08T00:03:21.491Z,797.29
2018-12-08T00:03:25.915Z,797.33
2018-12-08T00:03:30.211Z,797.3
2018-12-08T00:03:34.504Z,797.28
2018-12-08T00:03:38.909Z,797.25
2018-12-08T00:03:43.112Z,797.22
2018-12-08T00:03:47.404Z,797.27
2018-12-08T00:03:51.699Z,797.3
2018-12-08T00:03:56.001Z,797.29
2018-12-08T00:04:00.290Z,797.29
2018-12-08T00:04:04.583Z,797.24
2018-12-08T00:04:08.877Z,797.24
2018-12-08T00:04:13.085Z,797.22
2018-12-08T00:04:17.374Z,797.25
2018-12-08T00:04:21.667Z,797.21
2018-12-08T00:04:26.051Z,797.22
2018-12-08T00:04:30.352Z,797.2
2018-12-08T00:04:34.641Z,797.23
2018-12-08T00:04:38.941Z,797.21
2018-12-08T00:04:43.243Z,797.16
2018-12-08T00:04:47.535Z,797.18
2018-12-08T00:04:51.828Z,797.18
2018-12-08T00:04:56.017Z,797.19
2018-12-08T00:05:00.309Z,797.17
2018-12-08T00:05:04.691Z,797.18
2018-12-08T00:05:08.887Z,797.15
2018-12-08T00:05:13.078Z,797.16
2018-12-08T00:05:17.468Z,797.19
2018-12-08T00:05:21.761Z,797.17
2018-12-08T00:05:25.964Z,797.17
2018-12-08T00:05:30.162Z,797.14
2018-12-08T00:05:34.353Z,797.16
2018-12-08T00:05:38.646Z,797.15
2018-12-08T00:05:42.837Z,797.17
2018-12-08T00:05:47.121Z,797.11
2018-12-08T00:05:51.417Z,797.12
2018-12-08T00:05:55.710Z,797.13
2018-12-08T00:06:00.005Z,797.14
2018-12-08T00:06:04.453Z,797.18
2018-12-08T00:06:08.746Z,797.16
2018-12-08T00:06:13.033Z,797.14
2018-12-08T00:06:17.327Z,797.16
2018-12-08T00:06:21.620Z,797.15
2018-12-08T00:06:25.914Z,797.14
2018-12-08T00:06:30.210Z,797.14
2018-12-08T00:06:34.509Z,797.16
2018-12-08T00:06:38.902Z,797.14
2018-12-08T00:06:43.192Z,797.15
2018-12-08T00:06:47.484Z,797.12
2018-12-08T00:06:51.896Z,797.16
2018-12-08T00:06:56.186Z,797.14
2018-12-08T00:07:00.381Z,797.11
2018-12-08T00:07:04.676Z,797.13
2018-12-08T00:07:08.972Z,797.11
2018-12-08T00:07:13.265Z,797.12
2018-12-08T00:07:17.561Z,797.17
2018-12-08T00:07:21.882Z,797.15
2018-12-08T00:07:26.173Z,797.15
2018-12-08T00:07:30.474Z,797.1
2018-12-08T00:07:34.778Z,797.17
2018-12-08T00:07:39.066Z,797.17
2018-12-08T00:07:43.362Z,797.16
2018-12-08T00:07:47.658Z,797.13
2018-12-08T00:07:52.037Z,797.17
2018-12-08T00:07:56.326Z,797.16
2018-12-08T00:08:00.629Z,797.19
2018-12-08T00:08:04.927Z,797.13
2018-12-08T00:08:09.232Z,797.16
2018-12-08T00:08:13.533Z,797.17
2018-12-08T00:08:17.917Z,797.2
2018-12-08T00:08:22.213Z,797.16
2018-12-08T00:08:26.503Z,797.18
2018-12-08T00:08:30.807Z,797.19
2018-12-08T00:08:35.102Z,797.16
2018-12-08T00:08:39.423Z,797.17
2018-12-08T00:08:43.715Z,797.13
2018-12-08T00:08:47.902Z,797.13
2018-12-08T00:08:52.202Z,797.15
2018-12-08T00:08:56.298Z,797.15
2018-12-08T00:09:00.689Z,797.15
2018-12-08T00:09:04.978Z,797.13
2018-12-08T00:09:09.270Z,797.12
2018-12-08T00:09:13.556Z,797.13
2018-12-08T00:09:17.850Z,797.15
2018-12-08T00:09:22.145Z,797.18
2018-12-08T00:09:26.435Z,797.14
2018-12-08T00:09:30.728Z,797.14
2018-12-08T00:09:34.832Z,797.12
2018-12-08T00:09:39.135Z,797.08
2018-12-08T00:09:43.341Z,797.11
2018-12-08T00:09:47.633Z,797.09
2018-12-08T00:09:51.943Z,797.1
2018-12-08T00:09:56.329Z,797.08
2018-12-08T00:10:00.625Z,797.06
2018-12-08T00:10:05.126Z,797.05
2018-12-08T00:10:09.511Z,797.08
2018-12-08T00:10:13.701Z,797.1
2018-12-08T00:10:17.996Z,797.07
2018-12-08T00:10:22.292Z,797.07
2018-12-08T00:10:26.684Z,797.1
2018-12-08T00:10:30.982Z,797.09
2018-12-08T00:10:35.274Z,797.1
2018-12-08T00:10:39.568Z,797.09
2018-12-08T00:10:43.967Z,797.1
2018-12-08T00:10:48.274Z,797.04
2018-12-08T00:10:52.568Z,797.1
2018-12-08T00:10:56.860Z,797.1
2018-12-08T00:11:01.060Z,797.11
2018-12-08T00:11:05.430Z,797.1
2018-12-08T00:11:09.723Z,797.07
2018-12-08T00:11:14.012Z,797.09
2018-12-08T00:11:18.306Z,797.08
2018-12-08T00:11:22.604Z,797.05
2018-12-08T00:11:26.896Z,797.04
2018-12-08T00:11:31.088Z,797.04
2018-12-08T00:11:35.377Z,797.05
2018-12-08T00:11:39.663Z,797.03
2018-12-08T00:11:46.103Z,797.04
2018-12-08T00:11:50.412Z,797
2018-12-08T00:11:54.703Z,797.06
2018-12-08T00:11:58.905Z,797.06
2018-12-08T00:12:03.106Z,797.07
2018-12-08T00:12:07.402Z,797.03
2018-12-08T00:12:11.700Z,797.02
2018-12-08T00:12:15.991Z,797.06
2018-12-08T00:12:20.400Z,797.08
2018-12-08T00:12:24.694Z,797.04
2018-12-08T00:12:28.984Z,797.04
2018-12-08T00:12:33.279Z,797.03
2018-12-08T00:12:37.584Z,797.02
2018-12-08T00:12:41.896Z,797.01
2018-12-08T00:12:46.195Z,797
2018-12-08T00:12:50.486Z,797.01
2018-12-08T00:12:54.775Z,797.02
2018-12-08T00:12:59.084Z,797.01
2018-12-08T00:13:03.437Z,797
2018-12-08T00:13:07.737Z,797.01
2018-12-08T00:13:12.034Z,796.99
2018-12-08T00:13:16.264Z,797.02
2018-12-08T00:13:20.562Z,797.01
2018-12-08T00:13:24.914Z,797
2018-12-08T00:13:29.212Z,796.95
2018-12-08T00:13:33.508Z,796.99
2018-12-08T00:13:37.803Z,796.97
2018-12-08T00:13:42.102Z,797
2018-12-08T00:13:46.506Z,796.96
2018-12-08T00:13:50.809Z,796.98
2018-12-08T00:13:55.097Z,796.95
2018-12-08T00:13:59.391Z,796.98
2018-12-08T00:14:03.491Z,796.97
2018-12-08T00:14:07.794Z,796.94
2018-12-08T00:14:12.092Z,797.02
2018-12-08T00:14:16.487Z,796.97
2018-12-08T00:14:20.777Z,796.96
2018-12-08T00:14:25.174Z,796.97
2018-12-08T00:14:29.468Z,796.94
2018-12-08T00:14:33.779Z,796.93
2018-12-08T00:14:38.072Z,796.94
2018-12-08T00:14:42.363Z,796.95
2018-12-08T00:14:46.652Z,796.92
2018-12-08T00:14:50.941Z,796.94
2018-12-08T00:14:55.230Z,796.94
2018-12-08T00:14:59.517Z,796.95
2018-12-08T00:15:03.990Z,796.94
2018-12-08T00:15:08.288Z,796.94
2018-12-08T00:15:12.589Z,796.94
2018-12-08T00:15:16.989Z,796.96
2018-12-08T00:15:21.286Z,796.94
2018-12-08T00:15:25.578Z,796.95
2018-12-08T00:15:29.980Z,796.92
2018-12-08T00:15:34.266Z,796.94
2018-12-08T00:15:38.630Z,796.89
2018-12-08T00:15:42.921Z,796.9
2018-12-08T00:15:47.212Z,796.83
2018-12-08T00:15:51.517Z,796.86
2018-12-08T00:15:59.905Z,796.89
2018-12-08T00:16:04.221Z,796.93
2018-12-08T00:16:08.526Z,796.91
2018-12-08T00:16:12.730Z,796.92
2018-12-08T00:16:17.020Z,796.93
2018-12-08T00:16:21.313Z,796.93
2018-12-08T00:16:25.608Z,796.83
2018-12-08T00:16:29.898Z,796.91
2018-12-08T00:16:34.194Z,796.91
2018-12-08T00:16:38.483Z,796.9
2018-12-08T00:16:42.815Z,796.92
2018-12-08T00:16:47.008Z,796.91
2018-12-08T00:16:51.315Z,796.91
2018-12-08T00:16:55.516Z,796.91
2018-12-08T00:16:59.809Z,796.91
2018-12-08T00:17:04.097Z,796.9
2018-12-08T00:17:08.386Z,796.89
2018-12-08T00:17:12.674Z,796.87
2018-12-08T00:17:16.968Z,796.92
2018-12-08T00:17:21.264Z,796.93
2018-12-08T00:17:25.564Z,796.89
2018-12-08T00:17:29.869Z,796.89
2018-12-08T00:17:34.166Z,796.91
2018-12-08T00:17:38.356Z,796.9
2018-12-08T00:17:42.644Z,796.9
2018-12-08T00:17:46.943Z,796.9
2018-12-08T00:17:51.138Z,796.9
2018-12-08T00:17:55.460Z,796.9
2018-12-08T00:17:59.754Z,796.91
2018-12-08T00:18:04.097Z,796.87
2018-12-08T00:18:08.398Z,796.88
2018-12-08T00:18:12.724Z,796.87
2018-12-08T00:18:17.013Z,796.88
2018-12-08T00:18:21.216Z,796.91
2018-12-08T00:18:25.414Z,796.84
2018-12-08T00:18:29.717Z,796.88
2018-12-08T00:18:34.003Z,796.88
2018-12-08T00:18:38.296Z,796.85
2018-12-08T00:18:42.580Z,796.87
2018-12-08T00:18:46.873Z,796.86
2018-12-08T00:18:51.209Z,796.83
2018-12-08T00:18:55.498Z,796.84
2018-12-08T00:18:59.804Z,796.83
2018-12-08T00:19:04.097Z,796.8
2018-12-08T00:19:08.384Z,796.81
2018-12-08T00:19:12.673Z,796.81
2018-12-08T00:19:16.969Z,796.8
2018-12-08T00:19:21.163Z,796.84
2018-12-08T00:19:25.468Z,796.86
2018-12-08T00:19:29.756Z,796.82
2018-12-08T00:19:34.151Z,796.8
2018-12-08T00:19:38.444Z,796.82
2018-12-08T00:19:42.642Z,796.81
2018-12-08T00:19:46.831Z,796.84
2018-12-08T00:19:51.131Z,796.83
2018-12-08T00:19:55.431Z,796.84
2018-12-08T00:19:59.721Z,796.84
2018-12-08T00:20:04.014Z,796.84
2018-12-08T00:20:08.317Z,796.84
2018-12-08T00:20:12.612Z,796.84
2018-12-08T00:20:16.901Z,796.85
2018-12-08T00:20:21.294Z,796.87
2018-12-08T00:20:25.490Z,796.89
2018-12-08T00:20:29.864Z,796.91
2018-12-08T00:20:34.167Z,796.82
2018-12-08T00:20:38.454Z,796.89
2018-12-08T00:20:42.655Z,796.89
2018-12-08T00:20:46.945Z,796.91
2018-12-08T00:20:51.142Z,796.89
2018-12-08T00:20:55.247Z,796.89
2018-12-08T00:20:59.599Z,796.88
2018-12-08T00:21:03.887Z,796.89
2018-12-08T00:21:08.177Z,796.92
2018-12-08T00:21:12.475Z,796.92
2018-12-08T00:21:16.788Z,796.94
2018-12-08T00:21:21.078Z,796.9
2018-12-08T00:21:25.371Z,796.94
2018-12-08T00:21:29.743Z,796.95
2018-12-08T00:21:33.942Z,796.94
2018-12-08T00:21:38.231Z,796.96
2018-12-08T00:21:42.534Z,796.96
2018-12-08T00:21:46.866Z,796.95
2018-12-08T00:21:51.158Z,796.95
2018-12-08T00:21:55.451Z,796.98
2018-12-08T00:21:59.648Z,796.94
2018-12-08T00:22:03.848Z,796.97
2018-12-08T00:22:08.229Z,796.98
2018-12-08T00:22:12.527Z,796.99
2018-12-08T00:22:16.816Z,797.01
2018-12-08T00:22:21.115Z,797.01
2018-12-08T00:22:25.408Z,797.02
2018-12-08T00:22:29.701Z,796.98
2018-12-08T00:22:33.997Z,796.95
2018-12-08T00:22:38.293Z,797
2018-12-08T00:22:42.487Z,797
2018-12-08T00:22:46.874Z,797.02
2018-12-08T00:22:51.168Z,797.03
2018-12-08T00:22:55.465Z,797.03
2018-12-08T00:22:59.762Z,797.05
2018-12-08T00:23:04.149Z,797.04
2018-12-08T00:23:08.441Z,797.01
2018-12-08T00:23:12.729Z,797.05
2018-12-08T00:23:17.021Z,797.03
2018-12-08T00:23:21.312Z,797.03
2018-12-08T00:23:25.600Z,797.04
2018-12-08T00:23:29.886Z,797.03
2018-12-08T00:23:34.175Z,796.99
2018-12-08T00:23:38.470Z,796.93
2018-12-08T00:23:42.767Z,796.93
2018-12-08T00:23:47.057Z,796.92
2018-12-08T00:23:51.260Z,796.91
2018-12-08T00:23:55.553Z,796.96
2018-12-08T00:23:59.845Z,796.88
2018-12-08T00:24:04.059Z,796.89
2018-12-08T00:24:08.355Z,796.89
2018-12-08T00:24:12.651Z,796.92
2018-12-08T00:24:16.939Z,796.93
2018-12-08T00:24:21.232Z,796.96
2018-12-08T00:24:25.526Z,796.92
2018-12-08T00:24:29.817Z,796.91
2018-12-08T00:24:34.135Z,796.94
2018-12-08T00:24:38.328Z,796.94
2018-12-08T00:24:42.627Z,796.88
2018-12-08T00:24:46.927Z,796.92
2018-12-08T00:24:51.122Z,796.89
2018-12-08T00:24:55.419Z,796.88
2018-12-08T00:24:59.829Z,796.77
2018-12-08T00:25:04.128Z,796.75
2018-12-08T00:25:08.420Z,796.76
2018-12-08T00:25:12.705Z,796.77
2018-12-08T00:25:17.003Z,796.75
2018-12-08T00:25:21.294Z,796.76
2018-12-08T00:25:25.589Z,796.79
2018-12-08T00:25:29.882Z,796.74
2018-12-08T00:25:34.174Z,796.71
2018-12-08T00:25:38.471Z,796.77
2018-12-08T00:25:42.760Z,796.7
2018-12-08T00:25:47.046Z,796.67
2018-12-08T00:25:51.338Z,796.71
2018-12-08T00:25:55.534Z,796.67
2018-12-08T00:25:59.825Z,796.69
2018-12-08T00:26:04.072Z,796.66
2018-12-08T00:26:08.363Z,796.67
2018-12-08T00:26:14.704Z,796.69
2018-12-08T00:26:19.086Z,796.64
2018-12-08T00:26:23.392Z,796.66
2018-12-08T00:26:27.686Z,796.68
2018-12-08T00:26:31.989Z,796.65
2018-12-08T00:26:36.287Z,796.61
2018-12-08T00:26:40.676Z,796.59
2018-12-08T00:26:44.866Z,796.63
2018-12-08T00:26:49.171Z,796.61
2018-12-08T00:26:53.371Z,796.62
2018-12-08T00:26:57.766Z,796.58
2018-12-08T00:27:02.060Z,796.62
2018-12-08T00:27:06.352Z,796.62
2018-12-08T00:27:10.643Z,796.6
2018-12-08T00:27:14.839Z,796.64
2018-12-08T00:27:19.135Z,796.59
2018-12-08T00:27:23.428Z,796.58
2018-12-08T00:27:27.720Z,796.62
2018-12-08T00:27:32.024Z,796.59
2018-12-08T00:27:36.324Z,796.56
2018-12-08T00:27:40.615Z,796.6
2018-12-08T00:27:45.022Z,796.6
2018-12-08T00:27:49.225Z,796.6
2018-12-08T00:27:53.533Z,796.6
2018-12-08T00:27:57.828Z,796.57
2018-12-08T00:28:02.127Z,796.59
2018-12-08T00:28:06.418Z,796.57
2018-12-08T00:28:10.706Z,796.59
2018-12-08T00:28:15.001Z,796.59
2018-12-08T00:28:19.303Z,796.59
2018-12-08T00:28:23.601Z,796.6
2018-12-08T00:28:27.898Z,796.57
2018-12-08T00:28:32.188Z,796.56
2018-12-08T00:28:36.481Z,796.6
2018-12-08T00:28:40.772Z,796.61
2018-12-08T00:28:45.059Z,796.64
2018-12-08T00:28:49.349Z,796.59
2018-12-08T00:28:53.638Z,796.6
2018-12-08T00:28:57.932Z,796.64
2018-12-08T00:29:02.234Z,796.64
2018-12-08T00:29:06.529Z,796.62
2018-12-08T00:29:10.830Z,796.63
2018-12-08T00:29:15.137Z,796.63
2018-12-08T00:29:19.436Z,796.61
2018-12-08T00:29:23.723Z,796.62
2018-12-08T00:29:28.015Z,796.62
2018-12-08T00:29:32.306Z,796.64
2018-12-08T00:29:36.596Z,796.64
2018-12-08T00:29:40.893Z,796.7
2018-12-08T00:29:45.179Z,796.65
2018-12-08T00:29:49.466Z,796.69
2018-12-08T00:29:53.803Z,796.66
2018-12-08T00:29:58.089Z,796.69
2018-12-08T00:30:02.330Z,796.67
2018-12-08T00:30:06.618Z,796.66
2018-12-08T00:30:10.919Z,796.64
2018-12-08T00:30:15.207Z,796.7
2018-12-08T00:30:19.499Z,796.68
2018-12-08T00:30:23.688Z,796.7
2018-12-08T00:30:27.977Z,796.69
2018-12-08T00:30:32.271Z,796.7
2018-12-08T00:30:36.571Z,796.7
2018-12-08T00:30:40.764Z,796.68
2018-12-08T00:30:44.962Z,796.69
2018-12-08T00:30:49.248Z,796.69
2018-12-08T00:30:53.535Z,796.67
2018-12-08T00:30:57.828Z,796.64
2018-12-08T00:31:02.031Z,796.66
2018-12-08T00:31:06.404Z,796.71
2018-12-08T00:31:10.699Z,796.71
2018-12-08T00:31:14.991Z,796.68
2018-12-08T00:31:19.280Z,796.72
2018-12-08T00:31:23.574Z,796.71
2018-12-08T00:31:27.880Z,796.72
2018-12-08T00:31:32.186Z,796.72
2018-12-08T00:31:36.483Z,796.75
2018-12-08T00:31:40.680Z,796.76
2018-12-08T00:31:44.990Z,796.76
2018-12-08T00:31:49.184Z,796.76
2018-12-08T00:31:53.374Z,796.76
2018-12-08T00:31:57.673Z,796.77
2018-12-08T00:32:01.968Z,796.77
2018-12-08T00:32:06.266Z,796.7
2018-12-08T00:32:10.561Z,796.73
2018-12-08T00:32:14.856Z,796.73
2018-12-08T00:32:19.151Z,796.73
2018-12-08T00:32:23.443Z,796.74
2018-12-08T00:32:27.634Z,796.7
2018-12-08T00:32:31.924Z,796.7
2018-12-08T00:32:36.209Z,796.71
2018-12-08T00:32:40.501Z,796.71
2018-12-08T00:32:44.796Z,796.64
2018-12-08T00:32:49.089Z,796.66
2018-12-08T00:32:53.379Z,796.67
2018-12-08T00:32:57.667Z,796.68
2018-12-08T00:33:01.866Z,796.7
2018-12-08T00:33:06.168Z,796.7
2018-12-08T00:33:10.477Z,796.69
2018-12-08T00:33:14.767Z,796.69
2018-12-08T00:33:19.064Z,796.7
2018-12-08T00:33:23.360Z,796.72
2018-12-08T00:33:27.650Z,796.72
2018-12-08T00:33:31.942Z,796.72
2018-12-08T00:33:36.232Z,796.72
2018-12-08T00:33:40.522Z,796.72
2018-12-08T00:33:44.819Z,796.72
2018-12-08T00:33:49.145Z,796.73
2018-12-08T00:33:53.434Z,796.71
2018-12-08T00:33:57.735Z,796.74
2018-12-08T00:34:02.021Z,796.74
2018-12-08T00:34:06.316Z,796.67
2018-12-08T00:34:10.610Z,796.74
2018-12-08T00:34:14.910Z,796.76
2018-12-08T00:34:19.287Z,796.72
2018-12-08T00:34:23.578Z,796.74
2018-12-08T00:34:27.928Z,796.71
2018-12-08T00:34:32.224Z,796.69
2018-12-08T00:34:36.517Z,796.71
2018-12-08T00:34:40.813Z,796.74
2018-12-08T00:34:45.026Z,796.76
2018-12-08T00:34:49.315Z,796.71
2018-12-08T00:34:53.611Z,796.75
2018-12-08T00:34:57.977Z,796.76
2018-12-08T00:35:02.270Z,796.75
2018-12-08T00:35:06.561Z,796.75
2018-12-08T00:35:10.851Z,796.75
2018-12-08T00:35:15.141Z,796.78
2018-12-08T00:35:19.442Z,796.78
2018-12-08T00:35:23.736Z,796.78
2018-12-08T00:35:27.945Z,796.8
2018-12-08T00:35:32.242Z,796.76
2018-12-08T00:35:36.451Z,796.78
2018-12-08T00:35:40.747Z,796.78
2018-12-08T00:35:45.033Z,796.81
2018-12-08T00:35:49.325Z,796.8
2018-12-08T00:35:53.623Z,796.81
2018-12-08T00:35:57.910Z,796.84
2018-12-08T00:36:02.198Z,796.86
2018-12-08T00:36:06.404Z,796.83
2018-12-08T00:36:10.703Z,796.84
2018-12-08T00:36:14.991Z,796.81
2018-12-08T00:36:19.281Z,796.81
2018-12-08T00:36:23.480Z,796.82
2018-12-08T00:36:27.774Z,796.86
2018-12-08T00:36:32.068Z,796.88
2018-12-08T00:36:36.376Z,796.89
2018-12-08T00:36:40.672Z,796.91
2018-12-08T00:36:44.960Z,796.9
2018-12-08T00:36:49.149Z,796.9
2018-12-08T00:36:53.544Z,796.92
2018-12-08T00:36:57.943Z,796.93
2018-12-08T00:37:02.233Z,796.95
2018-12-08T00:37:06.527Z,796.96
2018-12-08T00:37:10.829Z,796.9
2018-12-08T00:37:15.132Z,796.96
2018-12-08T00:37:19.422Z,796.97
2018-12-08T00:37:23.765Z,796.99
2018-12-08T00:37:28.061Z,796.97
2018-12-08T00:37:32.362Z,796.96
2018-12-08T00:37:36.654Z,796.98
2018-12-08T00:37:40.940Z,797
2018-12-08T00:37:45.236Z,797
2018-12-08T00:37:49.537Z,796.99
2018-12-08T00:37:53.825Z,797.03
2018-12-08T00:37:58.225Z,797.06
2018-12-08T00:38:02.515Z,797.05
2018-12-08T00:38:06.807Z,797.06
2018-12-08T00:38:11.097Z,797.06
2018-12-08T00:38:15.296Z,797.09
2018-12-08T00:38:19.588Z,797.07
2018-12-08T00:38:23.872Z,797.06
2018-12-08T00:38:28.161Z,797.08
2018-12-08T00:38:32.354Z,797.09
2018-12-08T00:38:36.569Z,797.13
2018-12-08T00:38:40.860Z,797.1
2018-12-08T00:38:45.150Z,797.14
2018-12-08T00:38:49.438Z,797.14
2018-12-08T00:38:53.732Z,797.11
2018-12-08T00:38:57.921Z,797.12
2018-12-08T00:39:02.213Z,797.12
2018-12-08T00:39:06.518Z,797.13
2018-12-08T00:39:10.807Z,797.13
2018-12-08T00:39:15.217Z,797.14
2018-12-08T00:39:19.515Z,797.16
2018-12-08T00:39:23.708Z,797.16
2018-12-08T00:39:28.002Z,797.17
2018-12-08T00:39:32.302Z,797.18
2018-12-08T00:39:36.604Z,797.19
2018-12-08T00:39:40.895Z,797.19
2018-12-08T00:39:45.197Z,797.22
2018-12-08T00:39:49.450Z,797.23
2018-12-08T00:39:53.646Z,797.22
2018-12-08T00:39:57.835Z,797.22
2018-12-08T00:40:02.141Z,797.25
2018-12-08T00:40:06.439Z,797.25
2018-12-08T00:40:10.834Z,797.24
2018-12-08T00:40:15.122Z,797.26
2018-12-08T00:40:19.417Z,797.26
2018-12-08T00:40:23.707Z,797.25
2018-12-08T00:40:28.010Z,797.25
2018-12-08T00:40:32.309Z,797.24
2018-12-08T00:40:36.597Z,797.24
2018-12-08T00:40:40.953Z,797.19
2018-12-08T00:40:45.154Z,797.22
2018-12-08T00:40:49.440Z,797.19
2018-12-08T00:40:53.843Z,797.24
2018-12-08T00:40:57.945Z,797.19
2018-12-08T00:41:02.242Z,797.2
2018-12-08T00:41:06.434Z,797.2
2018-12-08T00:41:10.728Z,797.15
2018-12-08T00:41:14.925Z,797.18
2018-12-08T00:41:19.127Z,797.15
2018-12-08T00:41:23.122Z,797.15
2018-12-08T00:41:27.406Z,797.17
2018-12-08T00:41:31.700Z,797.16
2018-12-08T00:41:35.998Z,797.16
2018-12-08T00:41:40.381Z,797.13
2018-12-08T00:41:44.678Z,797.11
2018-12-08T00:41:48.963Z,797.11
2018-12-08T00:41:53.259Z,797.12
2018-12-08T00:41:57.554Z,797.1
2018-12-08T00:42:01.850Z,797.12
2018-12-08T00:42:06.062Z,797.12
2018-12-08T00:42:10.356Z,797.1
2018-12-08T00:42:14.649Z,797.11
2018-12-08T00:42:18.849Z,797.11
2018-12-08T00:42:23.137Z,797.12
2018-12-08T00:42:27.427Z,797.12
2018-12-08T00:42:31.722Z,797.15
2018-12-08T00:42:36.012Z,797.13
2018-12-08T00:42:40.318Z,797.1
2018-12-08T00:42:44.698Z,797.11
2018-12-08T00:42:48.988Z,797.09
2018-12-08T00:42:53.246Z,797.1
2018-12-08T00:42:57.543Z,797.05
2018-12-08T00:43:01.827Z,797.09
2018-12-08T00:43:06.114Z,797.07
2018-12-08T00:43:10.410Z,797.08
2018-12-08T00:43:14.834Z,797.05
2018-12-08T00:43:19.124Z,797.04
2018-12-08T00:43:23.416Z,797.05
2018-12-08T00:43:27.706Z,797.07
2018-12-08T00:43:31.899Z,797.07
2018-12-08T00:43:36.187Z,797.06
2018-12-08T00:43:40.476Z,797.03
2018-12-08T00:43:44.762Z,797
2018-12-08T00:43:49.052Z,797.03
2018-12-08T00:43:53.339Z,796.99
2018-12-08T00:43:57.632Z,797
2018-12-08T00:44:01.922Z,797
2018-12-08T00:44:06.223Z,796.97
2018-12-08T00:44:10.511Z,796.98
2018-12-08T00:44:14.806Z,796.98
2018-12-08T00:44:19.105Z,796.99
2018-12-08T00:44:23.400Z,796.98
2018-12-08T00:44:27.705Z,797
2018-12-08T00:44:31.998Z,796.97
2018-12-08T00:44:36.304Z,796.98
2018-12-08T00:44:40.603Z,796.95
2018-12-08T00:44:44.908Z,796.98
2018-12-08T00:44:49.196Z,796.97
2018-12-08T00:44:53.388Z,796.94
2018-12-08T00:44:57.678Z,796.94
2018-12-08T00:45:02.022Z,796.99
2018-12-08T00:45:06.322Z,796.99
2018-12-08T00:45:10.609Z,796.94
2018-12-08T00:45:14.942Z,796.98
2018-12-08T00:45:19.141Z,796.99
2018-12-08T00:45:23.430Z,796.97
2018-12-08T00:45:27.719Z,796.94
2018-12-08T00:45:32.014Z,796.98
2018-12-08T00:45:36.207Z,796.97
2018-12-08T00:45:40.497Z,796.99
2018-12-08T00:45:44.792Z,796.93
2018-12-08T00:45:49.115Z,796.92
2018-12-08T00:45:53.410Z,796.96
2018-12-08T00:45:57.707Z,796.98
2018-12-08T00:46:02.201Z,796.98
2018-12-08T00:46:06.488Z,796.99
2018-12-08T00:46:10.780Z,796.98
2018-12-08T00:46:15.068Z,796.92
2018-12-08T00:46:19.358Z,796.97
2018-12-08T00:46:23.551Z,796.93
2018-12-08T00:46:27.752Z,796.92
2018-12-08T00:46:31.955Z,796.96
2018-12-08T00:46:36.245Z,796.95
2018-12-08T00:46:40.530Z,796.97
2018-12-08T00:46:44.823Z,796.94
2018-12-08T00:46:48.915Z,796.94
2018-12-08T00:46:53.204Z,796.9
2018-12-08T00:46:57.503Z,796.89
2018-12-08T00:47:01.795Z,796.91
2018-12-08T00:47:06.087Z,796.91
2018-12-08T00:47:10.281Z,796.86
2018-12-08T00:47:14.570Z,796.84
2018-12-08T00:47:18.972Z,796.85
2018-12-08T00:47:23.265Z,796.87
2018-12-08T00:47:27.551Z,796.85
2018-12-08T00:47:31.861Z,796.85
2018-12-08T00:47:36.154Z,796.84
2018-12-08T00:47:40.345Z,796.84
2018-12-08T00:47:44.635Z,796.79
2018-12-08T00:47:48.938Z,796.83
2018-12-08T00:47:53.240Z,796.8
2018-12-08T00:47:57.341Z,796.75
2018-12-08T00:48:01.632Z,796.79
2018-12-08T00:48:05.820Z,796.77
2018-12-08T00:48:10.110Z,796.74
2018-12-08T00:48:14.403Z,796.7
2018-12-08T00:48:18.689Z,796.69
2018-12-08T00:48:22.980Z,796.66
2018-12-08T00:48:27.080Z,796.68
2018-12-08T00:48:31.271Z,796.66
2018-12-08T00:48:35.575Z,796.66
2018-12-08T00:48:39.868Z,796.6
2018-12-08T00:48:44.157Z,796.61
2018-12-08T00:48:48.455Z,796.62
2018-12-08T00:48:52.747Z,796.63
2018-12-08T00:48:56.845Z,796.63
2018-12-08T00:49:01.136Z,796.63
2018-12-08T00:49:05.340Z,796.63
2018-12-08T00:49:09.637Z,796.61
2018-12-08T00:49:13.935Z,796.61
2018-12-08T00:49:18.231Z,796.58
2018-12-08T00:49:22.517Z,796.55
2018-12-08T00:49:26.818Z,796.56
2018-12-08T00:49:31.161Z,796.5
2018-12-08T00:49:35.453Z,796.5
2018-12-08T00:49:39.740Z,796.53
2018-12-08T00:49:44.033Z,796.51
2018-12-08T00:49:48.321Z,796.49
2018-12-08T00:49:52.725Z,796.48
2018-12-08T00:49:57.027Z,796.47
2018-12-08T00:50:01.321Z,796.47
2018-12-08T00:50:05.621Z,796.44
2018-12-08T00:50:09.906Z,796.48
2018-12-08T00:50:14.194Z,796.45
2018-12-08T00:50:18.478Z,796.46
2018-12-08T00:50:22.769Z,796.39
2018-12-08T00:50:27.068Z,796.31
2018-12-08T00:50:31.357Z,796.37
2018-12-08T00:50:35.647Z,796.36
2018-12-08T00:50:39.934Z,796.4
2018-12-08T00:50:44.221Z,796.37
2018-12-08T00:50:48.513Z,796.37
2018-12-08T00:50:52.805Z,796.36
2018-12-08T00:50:57.110Z,796.34
2018-12-08T00:51:01.399Z,796.32
2018-12-08T00:51:05.689Z,796.31
2018-12-08T00:51:09.979Z,796.26
2018-12-08T00:51:14.174Z,796.27
2018-12-08T00:51:18.375Z,796.26
2018-12-08T00:51:22.666Z,796.27
2018-12-08T00:51:26.955Z,796.32
2018-12-08T00:51:31.236Z,796.27
2018-12-08T00:51:35.450Z,796.28
2018-12-08T00:51:39.653Z,796.25
2018-12-08T00:51:43.951Z,796.29
2018-12-08T00:51:48.261Z,796.28
2018-12-08T00:51:52.548Z,796.29
2018-12-08T00:51:56.841Z,796.28
2018-12-08T00:52:01.132Z,796.26
2018-12-08T00:52:05.429Z,796.26
2018-12-08T00:52:09.622Z,796.28
2018-12-08T00:52:13.916Z,796.26
2018-12-08T00:52:18.206Z,796.28
2018-12-08T00:52:22.493Z,796.32
2018-12-08T00:52:26.687Z,796.29
2018-12-08T00:52:30.982Z,796.27
2018-12-08T00:52:35.283Z,796.28
2018-12-08T00:52:39.574Z,796.29
2018-12-08T00:52:43.865Z,796.25
2018-12-08T00:52:48.161Z,796.24
2018-12-08T00:52:52.453Z,796.25
2018-12-08T00:52:56.740Z,796.25
2018-12-08T00:53:01.028Z,796.27
2018-12-08T00:53:05.311Z,796.27
2018-12-08T00:53:09.506Z,796.25
2018-12-08T00:53:13.804Z,796.26
2018-12-08T00:53:18.217Z,796.26
2018-12-08T00:53:22.507Z,796.23
2018-12-08T00:53:26.802Z,796.21
2018-12-08T00:53:31.100Z,796.22
2018-12-08T00:53:35.392Z,796.17
2018-12-08T00:53:39.683Z,796.21
2018-12-08T00:53:43.979Z,796.18
2018-12-08T00:53:48.272Z,796.22
2018-12-08T00:53:52.461Z,796.22